createdAt,value
2023-05-27T00:01:55.730Z,7.60
2023-05-27T00:04:22.555Z,7.30
2023-05-27T00:06:51.453Z,7.50
2023-05-27T00:09:18.368Z,6.60
2023-05-27T00:11:45.305Z,6.80
2023-05-27T00:14:12.343Z,7.40
2023-05-27T00:16:38.910Z,7.70
2023-05-27T00:19:05.717Z,7.00
2023-05-27T00:21:32.344Z,6.70
2023-05-27T00:23:59.537Z,7.30
2023-05-27T00:26:26.567Z,7.40
2023-05-27T00:28:53.243Z,7.00
2023-05-27T00:31:20.275Z,7.10
2023-05-27T00:33:47.121Z,6.30
2023-05-27T00:36:13.844Z,7.10
2023-05-27T00:38:40.721Z,6.80
2023-05-27T00:41:07.505Z,6.80
2023-05-27T00:43:35.370Z,7.50
2023-05-27T00:46:02.129Z,7.10
2023-05-27T00:48:30.042Z,6.90
2023-05-27T00:50:56.624Z,6.40
2023-05-27T00:53:24.258Z,6.90
2023-05-27T00:55:53.333Z,7.40
2023-05-27T00:58:22.047Z,7.30
2023-05-27T01:00:48.969Z,7.40
2023-05-27T01:03:15.890Z,6.70
2023-05-27T01:05:43.276Z,7.30
2023-05-27T01:08:28.398Z,7.10
2023-05-27T01:10:55.523Z,6.90
2023-05-27T01:13:28.076Z,7.40
2023-05-27T01:15:55.248Z,8.50
2023-05-27T01:18:24.558Z,7.50
2023-05-27T01:20:52.212Z,7.90
2023-05-27T01:23:18.981Z,7.90
2023-05-27T01:25:45.954Z,8.10
2023-05-27T01:28:12.645Z,7.30
2023-05-27T01:30:39.964Z,7.10
2023-05-27T01:33:10.526Z,7.20
2023-05-27T01:35:46.035Z,8.10
2023-05-27T01:38:16.254Z,7.40
2023-05-27T01:40:43.108Z,6.90
2023-05-27T01:43:10.393Z,8.20
2023-05-27T01:45:38.611Z,7.90
2023-05-27T01:48:05.793Z,7.90
2023-05-27T01:50:33.693Z,8.50
2023-05-27T01:53:00.923Z,7.70
2023-05-27T01:55:27.718Z,6.70
2023-05-27T01:57:54.920Z,7.70
2023-05-27T02:00:21.539Z,8.10
2023-05-27T02:02:48.517Z,8.20
2023-05-27T02:05:15.602Z,8.00
2023-05-27T02:07:42.277Z,8.60
2023-05-27T02:10:10.256Z,8.60
2023-05-27T02:12:37.255Z,9.00
2023-05-27T02:15:05.592Z,8.40
2023-05-27T02:17:32.401Z,8.40
2023-05-27T02:19:59.169Z,7.80
2023-05-27T02:22:27.027Z,7.60
2023-05-27T02:24:53.808Z,8.50
2023-05-27T02:27:20.980Z,8.80
2023-05-27T02:29:48.232Z,9.00
2023-05-27T02:32:14.859Z,8.70
2023-05-27T02:34:44.019Z,8.90
2023-05-27T02:37:11.261Z,9.00
2023-05-27T02:39:39.324Z,8.70
2023-05-27T02:42:08.644Z,9.20
2023-05-27T02:44:36.417Z,9.10
2023-05-27T02:47:03.071Z,8.20
2023-05-27T02:49:29.838Z,8.10
2023-05-27T02:51:57.139Z,8.20
2023-05-27T02:54:23.919Z,7.80
2023-05-27T02:56:51.006Z,8.60
2023-05-27T02:59:17.554Z,9.00
2023-05-27T03:01:44.403Z,9.10
2023-05-27T03:04:11.319Z,9.30
2023-05-27T03:06:38.874Z,9.50
2023-05-27T03:09:05.818Z,8.80
2023-05-27T03:11:32.353Z,9.10
2023-05-27T03:13:59.572Z,8.50
2023-05-27T03:16:26.503Z,8.30
2023-05-27T03:18:53.350Z,8.30
2023-05-27T03:21:20.149Z,8.70
2023-05-27T03:23:47.092Z,9.20
2023-05-27T03:26:13.780Z,9.20
2023-05-27T03:28:40.962Z,9.70
2023-05-27T03:31:09.158Z,9.90
2023-05-27T03:33:45.110Z,9.00
2023-05-27T03:36:12.158Z,8.40
2023-05-27T03:38:38.752Z,8.50
2023-05-27T03:41:08.969Z,8.50
2023-05-27T03:43:36.794Z,7.70
2023-05-27T03:46:03.936Z,8.00
2023-05-27T03:48:30.810Z,8.50
2023-05-27T03:50:57.661Z,8.00
2023-05-27T03:53:25.173Z,8.10
2023-05-27T03:55:51.910Z,8.60
2023-05-27T03:58:19.380Z,7.40
2023-05-27T04:00:48.608Z,8.60
2023-05-27T04:03:15.465Z,8.60
2023-05-27T04:05:42.415Z,7.50
2023-05-27T04:08:09.167Z,7.60
2023-05-27T04:10:36.349Z,7.40
2023-05-27T04:13:03.030Z,8.00
2023-05-27T04:15:29.620Z,7.80
2023-05-27T04:17:56.370Z,8.20
2023-05-27T04:20:23.845Z,8.80
2023-05-27T04:22:53.785Z,8.20
2023-05-27T04:25:20.690Z,8.50
2023-05-27T04:28:07.431Z,9.30
2023-05-27T04:30:36.547Z,8.50
2023-05-27T04:33:04.950Z,8.80
2023-05-27T04:35:32.153Z,9.60
2023-05-27T04:38:01.687Z,9.30
2023-05-27T04:40:34.745Z,9.90
2023-05-27T04:43:17.014Z,9.30
2023-05-27T04:45:44.124Z,9.70
2023-05-27T04:48:11.656Z,9.80
2023-05-27T04:50:39.760Z,9.40
2023-05-27T04:53:07.680Z,9.70
2023-05-27T04:55:35.061Z,9.90
2023-05-27T04:58:05.856Z,10.30
2023-05-27T05:00:53.425Z,10.60
2023-05-27T05:03:37.127Z,9.40
2023-05-27T05:06:04.809Z,10.00
2023-05-27T05:08:32.520Z,10.40
2023-05-27T05:10:59.931Z,10.10
2023-05-27T05:13:29.597Z,10.60
2023-05-27T05:15:56.397Z,11.10
2023-05-27T05:18:23.604Z,11.40
2023-05-27T05:20:50.400Z,12.60
2023-05-27T05:23:19.831Z,16.60
2023-05-27T05:25:54.876Z,12.60
2023-05-27T05:28:23.249Z,17.60
2023-05-27T05:30:50.648Z,14.20
2023-05-27T05:33:17.764Z,15.10
2023-05-27T05:35:44.784Z,12.10
2023-05-27T05:38:24.621Z,11.00
2023-05-27T05:40:53.069Z,10.50
2023-05-27T05:43:20.791Z,10.40
2023-05-27T05:45:47.489Z,9.80
2023-05-27T05:48:15.067Z,9.10
2023-05-27T05:50:42.431Z,8.90
2023-05-27T05:53:10.964Z,8.80
2023-05-27T05:55:37.701Z,8.60
2023-05-27T05:58:04.710Z,8.00
2023-05-27T06:00:31.433Z,8.10
2023-05-27T06:03:09.291Z,8.70
2023-05-27T06:05:43.919Z,7.60
2023-05-27T06:08:13.872Z,8.20
2023-05-27T06:10:44.129Z,8.00
2023-05-27T06:13:11.694Z,8.10
2023-05-27T06:15:38.816Z,8.10
2023-05-27T06:18:06.683Z,8.80
2023-05-27T06:20:34.187Z,8.80
2023-05-27T06:23:00.822Z,7.70
2023-05-27T06:25:42.630Z,8.10
2023-05-27T06:28:09.642Z,8.00
2023-05-27T06:30:37.059Z,7.80
2023-05-27T06:33:05.351Z,7.90
2023-05-27T06:35:33.002Z,8.70
2023-05-27T06:37:59.918Z,8.00
2023-05-27T06:40:27.041Z,8.40
2023-05-27T06:42:54.813Z,8.20
2023-05-27T06:46:03.018Z,7.50
2023-05-27T06:49:06.680Z,8.80
2023-05-27T06:51:34.529Z,8.80
2023-05-27T06:54:01.511Z,8.20
2023-05-27T06:56:38.243Z,9.00
2023-05-27T06:59:24.128Z,8.40
2023-05-27T07:01:51.955Z,8.80
2023-05-27T07:04:18.811Z,8.90
2023-05-27T07:06:57.145Z,8.70
2023-05-27T07:09:24.413Z,9.30
2023-05-27T07:11:51.494Z,10.00
2023-05-27T07:14:41.054Z,9.30
2023-05-27T07:17:08.352Z,9.90
2023-05-27T07:19:35.454Z,10.10
2023-05-27T07:22:06.284Z,8.90
2023-05-27T07:24:33.238Z,9.90
2023-05-27T07:27:00.125Z,9.60
2023-05-27T07:29:27.774Z,9.80
2023-05-27T07:31:55.595Z,9.70
2023-05-27T07:34:27.307Z,9.20
2023-05-27T07:36:54.137Z,8.80
2023-05-27T07:39:20.752Z,8.10
2023-05-27T07:41:48.212Z,8.30
2023-05-27T07:44:16.389Z,8.20
2023-05-27T07:46:43.362Z,8.30
2023-05-27T07:49:10.291Z,9.00
2023-05-27T07:51:45.844Z,8.40
2023-05-27T07:54:12.503Z,9.00
2023-05-27T07:56:39.276Z,8.70
2023-05-27T07:59:05.928Z,8.50
2023-05-27T08:01:33.329Z,8.50
2023-05-27T08:04:08.825Z,8.70
2023-05-27T08:06:58.992Z,8.90
2023-05-27T08:09:46.030Z,9.10
2023-05-27T08:12:32.588Z,7.80
2023-05-27T08:15:11.517Z,8.00
2023-05-27T08:17:56.271Z,8.90
2023-05-27T08:20:42.358Z,8.00
2023-05-27T08:23:22.166Z,7.90
2023-05-27T08:26:13.703Z,7.40
2023-05-27T08:29:06.498Z,8.80
2023-05-27T08:31:39.370Z,8.40
2023-05-27T08:34:06.320Z,9.30
2023-05-27T08:36:34.773Z,8.90
2023-05-27T08:39:02.169Z,8.70
2023-05-27T08:41:33.653Z,8.10
2023-05-27T08:44:19.760Z,7.30
2023-05-27T08:46:50.810Z,7.30
2023-05-27T08:49:18.465Z,6.80
2023-05-27T08:51:48.221Z,7.00
2023-05-27T08:54:14.821Z,7.10
2023-05-27T08:56:41.439Z,7.70
2023-05-27T08:59:09.799Z,6.40
2023-05-27T09:01:36.895Z,6.50
2023-05-27T09:04:05.069Z,7.10
2023-05-27T09:06:33.109Z,6.10
2023-05-27T09:08:59.743Z,6.60
2023-05-27T09:11:28.408Z,6.80
2023-05-27T09:13:58.095Z,7.90
2023-05-27T09:16:25.056Z,8.70
2023-05-27T09:18:52.640Z,8.70
2023-05-27T09:21:19.560Z,7.70
2023-05-27T09:23:46.757Z,8.00
2023-05-27T09:26:13.826Z,8.30
2023-05-27T09:28:40.917Z,9.10
2023-05-27T09:31:09.553Z,8.30
2023-05-27T09:33:38.931Z,8.30
2023-05-27T09:36:06.575Z,8.70
2023-05-27T09:38:35.178Z,8.10
2023-05-27T09:41:02.674Z,8.50
2023-05-27T09:43:29.859Z,9.00
2023-05-27T09:46:04.004Z,9.30
2023-05-27T09:48:32.132Z,8.80
2023-05-27T09:51:01.894Z,9.00
2023-05-27T09:53:31.433Z,8.60
2023-05-27T09:55:58.373Z,8.10
2023-05-27T09:58:25.147Z,8.50
2023-05-27T10:00:52.358Z,8.10
2023-05-27T10:03:22.873Z,9.30
2023-05-27T10:05:50.553Z,9.20
2023-05-27T10:08:26.069Z,8.90
2023-05-27T10:10:54.467Z,9.70
2023-05-27T10:13:21.692Z,8.40
2023-05-27T10:15:50.175Z,9.20
2023-05-27T10:18:27.972Z,8.50
2023-05-27T10:20:55.021Z,9.40
2023-05-27T10:23:28.939Z,8.30
2023-05-27T10:25:56.791Z,8.20
2023-05-27T10:28:36.139Z,8.40
2023-05-27T10:31:15.488Z,8.50
2023-05-27T10:33:44.190Z,8.30
2023-05-27T10:36:18.676Z,8.80
2023-05-27T10:39:05.846Z,8.00
2023-05-27T10:41:49.174Z,8.30
2023-05-27T10:44:28.796Z,8.80
2023-05-27T10:47:11.738Z,7.70
2023-05-27T10:49:39.826Z,7.60
2023-05-27T10:52:13.072Z,7.70
2023-05-27T10:54:40.630Z,8.10
2023-05-27T10:57:08.185Z,8.20
2023-05-27T10:59:47.644Z,7.30
2023-05-27T11:02:14.447Z,6.70
2023-05-27T11:04:41.894Z,7.20
2023-05-27T11:07:08.626Z,6.90
2023-05-27T11:09:49.030Z,7.80
2023-05-27T11:12:16.894Z,6.50
2023-05-27T11:14:45.093Z,6.00
2023-05-27T11:17:12.739Z,6.30
2023-05-27T11:19:43.631Z,5.70
2023-05-27T11:22:10.637Z,5.70
2023-05-27T11:24:37.314Z,6.50
2023-05-27T11:27:15.612Z,5.90
2023-05-27T11:29:52.519Z,5.60
2023-05-27T11:32:19.524Z,6.40
2023-05-27T11:34:46.312Z,5.20
2023-05-27T11:37:13.342Z,5.30
2023-05-27T11:40:00.760Z,5.30
2023-05-27T11:42:29.066Z,5.40
2023-05-27T11:44:57.338Z,6.00
2023-05-27T11:47:24.057Z,5.90
2023-05-27T11:49:50.936Z,6.50
2023-05-27T11:52:18.132Z,7.20
2023-05-27T11:54:50.458Z,6.70
2023-05-27T11:57:24.806Z,7.30
2023-05-27T11:59:51.349Z,6.30
2023-05-27T12:02:21.534Z,7.60
2023-05-27T12:04:48.371Z,8.40
2023-05-27T12:07:19.955Z,7.30
2023-05-27T12:09:51.546Z,8.20
2023-05-27T12:12:21.250Z,7.40
2023-05-27T12:14:48.249Z,8.10
2023-05-27T12:17:14.844Z,7.70
2023-05-27T12:19:41.634Z,7.60
2023-05-27T12:22:08.672Z,7.40
2023-05-27T12:24:35.662Z,8.00
2023-05-27T12:27:02.883Z,6.90
2023-05-27T12:29:31.829Z,7.40
2023-05-27T12:31:58.801Z,7.70
2023-05-27T12:34:26.378Z,7.00
2023-05-27T12:36:53.178Z,7.20
2023-05-27T12:39:21.216Z,6.20
2023-05-27T12:41:48.117Z,6.50
2023-05-27T12:44:15.316Z,7.10
2023-05-27T12:46:42.514Z,7.50
2023-05-27T12:49:09.517Z,7.70
2023-05-27T12:51:36.369Z,8.40
2023-05-27T12:54:03.357Z,7.90
2023-05-27T12:56:31.501Z,8.00
2023-05-27T12:58:58.217Z,9.10
2023-05-27T13:01:25.091Z,8.60
2023-05-27T13:03:51.884Z,10.70
2023-05-27T13:06:19.769Z,7.90
2023-05-27T13:08:46.645Z,8.10
2023-05-27T13:11:13.235Z,9.20
2023-05-27T13:13:40.323Z,9.40
2023-05-27T13:16:07.273Z,8.40
2023-05-27T13:18:34.161Z,9.30
2023-05-27T13:21:01.554Z,8.90
2023-05-27T13:23:29.737Z,8.20
2023-05-27T13:25:57.183Z,7.90
2023-05-27T13:28:24.022Z,9.30
2023-05-27T13:30:52.025Z,8.30
2023-05-27T13:33:19.665Z,8.20
2023-05-27T13:35:46.641Z,9.30
2023-05-27T13:38:15.061Z,8.50
2023-05-27T13:40:41.965Z,8.30
2023-05-27T13:43:08.933Z,8.00
2023-05-27T13:45:35.943Z,8.50
2023-05-27T13:48:03.032Z,8.80
2023-05-27T13:50:32.101Z,8.20
2023-05-27T13:52:58.995Z,8.20
2023-05-27T13:55:25.969Z,8.10
2023-05-27T13:57:53.016Z,8.10
2023-05-27T14:00:20.602Z,7.50
2023-05-27T14:02:47.585Z,6.80
2023-05-27T14:05:14.289Z,7.70
2023-05-27T14:07:42.711Z,6.40
2023-05-27T14:10:10.214Z,6.90
2023-05-27T14:12:37.066Z,7.90
2023-05-27T14:15:04.410Z,8.10
2023-05-27T14:17:31.755Z,7.10
2023-05-27T14:19:59.172Z,8.60
2023-05-27T14:22:26.024Z,7.10
2023-05-27T14:24:54.093Z,6.90
2023-05-27T14:27:21.115Z,8.00
2023-05-27T14:29:47.976Z,8.30
2023-05-27T14:32:14.576Z,8.10
2023-05-27T14:34:41.266Z,9.10
2023-05-27T14:37:09.497Z,9.20
2023-05-27T14:39:36.667Z,9.40
2023-05-27T14:42:03.753Z,8.80
2023-05-27T14:44:34.415Z,9.30
2023-05-27T14:47:03.823Z,8.90
2023-05-27T14:49:31.897Z,8.30
2023-05-27T14:51:59.015Z,8.90
2023-05-27T14:54:26.051Z,8.60
2023-05-27T14:56:54.988Z,8.40
2023-05-27T14:59:22.787Z,8.60
2023-05-27T15:01:49.826Z,8.10
2023-05-27T15:04:17.802Z,8.80
2023-05-27T15:06:46.229Z,9.60
2023-05-27T15:09:13.095Z,10.00
2023-05-27T15:11:39.874Z,9.60
2023-05-27T15:14:06.586Z,9.00
2023-05-27T15:16:34.738Z,9.30
2023-05-27T15:19:02.277Z,9.00
2023-05-27T15:21:29.081Z,7.90
2023-05-27T15:23:55.754Z,8.90
2023-05-27T15:26:22.417Z,7.70
2023-05-27T15:28:49.311Z,7.40
2023-05-27T15:31:16.096Z,7.20
2023-05-27T15:33:42.865Z,7.80
2023-05-27T15:36:10.768Z,7.30
2023-05-27T15:38:37.508Z,7.90
2023-05-27T15:41:04.281Z,6.90
2023-05-27T15:43:31.742Z,6.50
2023-05-27T15:46:05.053Z,7.00
2023-05-27T15:48:33.228Z,8.10
2023-05-27T15:50:59.997Z,7.10
2023-05-27T15:53:26.704Z,6.00
2023-05-27T15:55:53.714Z,6.20
2023-05-27T15:58:21.265Z,6.60
2023-05-27T16:00:47.959Z,6.10
2023-05-27T16:03:14.632Z,5.90
2023-05-27T16:05:42.290Z,5.80
2023-05-27T16:08:09.573Z,6.30
2023-05-27T16:10:49.315Z,6.90
2023-05-27T16:13:16.095Z,6.00
2023-05-27T16:15:43.471Z,5.90
2023-05-27T16:18:10.132Z,6.00
2023-05-27T16:20:37.540Z,5.70
2023-05-27T16:23:05.345Z,5.90
2023-05-27T16:25:34.318Z,5.60
2023-05-27T16:28:01.745Z,5.70
2023-05-27T16:30:29.749Z,6.10
2023-05-27T16:32:57.271Z,6.00
2023-05-27T16:35:24.127Z,6.30
2023-05-27T16:37:52.214Z,5.90
2023-05-27T16:40:20.188Z,5.90
2023-05-27T16:42:46.861Z,5.70
2023-05-27T16:45:14.426Z,5.90
2023-05-27T16:47:41.629Z,5.20
2023-05-27T16:50:11.686Z,6.20
2023-05-27T16:52:38.679Z,5.20
2023-05-27T16:55:07.192Z,5.30
2023-05-27T16:57:34.647Z,20.20
2023-05-27T17:00:03.498Z,10.50
2023-05-27T17:02:30.662Z,10.10
2023-05-27T17:04:57.502Z,13.10
2023-05-27T17:07:24.240Z,6.10
2023-05-27T17:09:52.200Z,6.20
2023-05-27T17:12:18.878Z,6.20
2023-05-27T17:14:45.991Z,5.70
2023-05-27T17:17:14.343Z,8.70
2023-05-27T17:19:43.751Z,6.20
2023-05-27T17:22:10.628Z,5.30
2023-05-27T17:24:38.651Z,4.60
2023-05-27T17:27:06.930Z,5.70
2023-05-27T17:29:34.027Z,4.80
2023-05-27T17:32:01.001Z,5.30
2023-05-27T17:34:29.051Z,6.30
2023-05-27T17:36:55.990Z,5.90
2023-05-27T17:39:22.613Z,5.00
2023-05-27T17:41:49.504Z,4.20
2023-05-27T17:44:16.744Z,4.70
2023-05-27T17:46:44.648Z,5.10
2023-05-27T17:49:11.305Z,5.20
2023-05-27T17:51:38.062Z,4.80
2023-05-27T17:54:04.988Z,5.50
2023-05-27T17:56:32.001Z,4.80
2023-05-27T17:58:58.803Z,5.10
2023-05-27T18:01:25.510Z,4.70
2023-05-27T18:03:52.515Z,4.80
2023-05-27T18:06:19.240Z,4.90
2023-05-27T18:08:46.094Z,4.60
2023-05-27T18:11:12.759Z,4.50
2023-05-27T18:13:39.888Z,4.70
2023-05-27T18:16:07.302Z,5.50
2023-05-27T18:18:34.169Z,5.00
2023-05-27T18:21:00.964Z,5.40
2023-05-27T18:23:28.438Z,4.60
2023-05-27T18:25:55.124Z,4.10
2023-05-27T18:28:22.134Z,4.70
2023-05-27T18:30:48.909Z,4.60
2023-05-27T18:33:15.873Z,4.60
2023-05-27T18:35:43.087Z,4.60
2023-05-27T18:38:11.683Z,4.40
2023-05-27T18:40:40.360Z,4.60
2023-05-27T18:43:08.457Z,4.90
2023-05-27T18:45:52.241Z,4.10
2023-05-27T18:48:19.595Z,4.60
2023-05-27T18:50:47.053Z,4.30
2023-05-27T18:53:14.315Z,4.50
2023-05-27T18:55:41.134Z,4.10
2023-05-27T18:58:09.441Z,3.90
2023-05-27T19:00:37.489Z,4.10
2023-05-27T19:03:05.094Z,4.30
2023-05-27T19:05:33.351Z,4.10
2023-05-27T19:08:00.187Z,4.60
2023-05-27T19:10:26.999Z,3.90
2023-05-27T19:12:54.334Z,4.20
2023-05-27T19:15:21.708Z,4.30
2023-05-27T19:17:48.572Z,4.40
2023-05-27T19:20:15.428Z,4.00
2023-05-27T19:22:42.619Z,4.30
2023-05-27T19:25:09.458Z,4.80
2023-05-27T19:27:36.597Z,4.00
2023-05-27T19:30:04.736Z,4.20
2023-05-27T19:32:32.717Z,4.50
2023-05-27T19:34:59.493Z,4.10
2023-05-27T19:37:26.470Z,4.00
2023-05-27T19:39:55.736Z,4.00
2023-05-27T19:42:22.253Z,4.00
2023-05-27T19:44:49.950Z,4.60
2023-05-27T19:47:16.685Z,4.70
2023-05-27T19:49:46.495Z,4.00
2023-05-27T19:52:14.224Z,4.00
2023-05-27T19:54:41.340Z,4.10
2023-05-27T19:57:08.023Z,3.80
2023-05-27T19:59:36.073Z,4.30
2023-05-27T20:02:03.297Z,3.90
2023-05-27T20:04:30.149Z,5.20
2023-05-27T20:06:56.766Z,5.40
2023-05-27T20:09:23.360Z,5.50
2023-05-27T20:11:50.317Z,4.40
2023-05-27T20:14:17.311Z,4.80
2023-05-27T20:16:43.940Z,4.30
2023-05-27T20:19:10.545Z,4.70
2023-05-27T20:21:37.963Z,4.70
2023-05-27T20:24:04.867Z,5.00
2023-05-27T20:26:32.807Z,4.90
2023-05-27T20:28:59.498Z,5.50
2023-05-27T20:31:26.778Z,5.00
2023-05-27T20:33:53.480Z,4.80
2023-05-27T20:36:20.164Z,6.40
2023-05-27T20:38:46.796Z,6.60
2023-05-27T20:41:13.353Z,7.80
2023-05-27T20:43:42.234Z,5.80
2023-05-27T20:46:08.880Z,7.00
2023-05-27T20:48:36.023Z,5.70
2023-05-27T20:51:02.707Z,5.30
2023-05-27T20:53:29.647Z,5.60
2023-05-27T20:55:56.314Z,5.40
2023-05-27T20:58:22.997Z,4.90
2023-05-27T21:00:50.091Z,4.50
2023-05-27T21:03:17.044Z,5.10
2023-05-27T21:05:45.808Z,4.40
2023-05-27T21:08:12.582Z,5.10
2023-05-27T21:10:39.764Z,4.60
2023-05-27T21:13:06.606Z,4.60
2023-05-27T21:15:33.526Z,4.80
2023-05-27T21:18:00.608Z,4.80
2023-05-27T21:20:27.364Z,4.50
2023-05-27T21:22:54.711Z,5.30
2023-05-27T21:25:21.421Z,4.90
2023-05-27T21:27:48.033Z,4.80
2023-05-27T21:30:15.726Z,5.40
2023-05-27T21:32:42.849Z,5.00
2023-05-27T21:35:09.789Z,5.80
2023-05-27T21:37:36.521Z,4.90
2023-05-27T21:40:03.774Z,5.70
2023-05-27T21:42:32.537Z,5.10
2023-05-27T21:44:59.187Z,5.10
2023-05-27T21:47:26.372Z,4.60
2023-05-27T21:49:54.011Z,4.90
2023-05-27T21:52:24.320Z,4.40
2023-05-27T21:54:54.349Z,4.90
2023-05-27T21:57:21.452Z,5.50
2023-05-27T21:59:49.049Z,4.80
2023-05-27T22:02:15.817Z,4.40
2023-05-27T22:04:43.850Z,4.70
2023-05-27T22:07:10.442Z,5.10
2023-05-27T22:09:37.026Z,4.60
2023-05-27T22:12:04.141Z,4.50
2023-05-27T22:14:31.010Z,4.70
2023-05-27T22:16:57.655Z,5.10
2023-05-27T22:19:24.536Z,4.70
2023-05-27T22:21:51.121Z,4.10
2023-05-27T22:24:17.677Z,4.70
2023-05-27T22:26:44.455Z,5.00
2023-05-27T22:29:11.280Z,4.40
2023-05-27T22:31:38.004Z,4.40
2023-05-27T22:34:06.208Z,4.80
2023-05-27T22:36:35.803Z,4.70
2023-05-27T22:39:02.538Z,4.60
2023-05-27T22:41:29.343Z,4.30
2023-05-27T22:43:56.551Z,5.50
2023-05-27T22:46:23.311Z,5.10
2023-05-27T22:48:49.912Z,4.60
2023-05-27T22:51:16.596Z,4.60
2023-05-27T22:53:44.250Z,5.00
2023-05-27T22:56:11.946Z,4.70
2023-05-27T22:58:38.880Z,5.30
2023-05-27T23:01:05.533Z,4.60
2023-05-27T23:03:32.865Z,4.50
2023-05-27T23:06:00.171Z,4.80
2023-05-27T23:08:26.930Z,4.20
2023-05-27T23:10:53.532Z,4.70
2023-05-27T23:13:20.200Z,4.40
2023-05-27T23:15:47.248Z,4.60
2023-05-27T23:18:14.103Z,4.90
2023-05-27T23:20:41.388Z,5.00
2023-05-27T23:23:08.407Z,5.10
2023-05-27T23:25:35.388Z,4.80
2023-05-27T23:28:02.267Z,4.60
2023-05-27T23:30:29.036Z,4.80
2023-05-27T23:32:55.656Z,5.00
2023-05-27T23:35:22.930Z,5.20
2023-05-27T23:37:50.469Z,5.40
2023-05-27T23:40:17.087Z,5.30
2023-05-27T23:42:44.486Z,6.00
2023-05-27T23:45:11.660Z,4.50
2023-05-27T23:47:39.325Z,4.40
2023-05-27T23:50:08.223Z,4.70
2023-05-27T23:52:34.923Z,5.20
2023-05-27T23:55:02.222Z,4.60
2023-05-27T23:57:29.149Z,4.60
